createdAt,value
2018-09-22T00:00:52.257Z,14.70
2018-09-22T00:03:22.166Z,14.70
2018-09-22T00:05:52.207Z,14.70
2018-09-22T00:08:22.155Z,14.60
2018-09-22T00:10:52.020Z,14.60
2018-09-22T00:13:22.120Z,14.60
2018-09-22T00:15:51.955Z,14.60
2018-09-22T00:18:22.022Z,14.50
2018-09-22T00:20:51.938Z,14.30
2018-09-22T00:23:21.720Z,14.10
2018-09-22T00:25:51.710Z,14.00
2018-09-22T00:28:21.489Z,13.90
2018-09-22T00:30:51.807Z,13.80
2018-09-22T00:33:21.562Z,13.70
2018-09-22T00:35:51.391Z,13.70
2018-09-22T00:38:21.138Z,13.70
2018-09-22T00:40:51.031Z,13.70
2018-09-22T00:43:21.055Z,13.70
2018-09-22T00:45:51.155Z,13.60
2018-09-22T00:48:21.220Z,13.60
2018-09-22T00:50:51.136Z,13.70
2018-09-22T00:53:21.210Z,13.70
2018-09-22T00:55:51.015Z,13.70
2018-09-22T00:58:20.767Z,13.70
2018-09-22T01:00:50.696Z,13.70
2018-09-22T01:03:20.661Z,13.80
2018-09-22T01:05:50.501Z,13.70
2018-09-22T01:08:20.447Z,13.70
2018-09-22T01:10:51.277Z,13.70
2018-09-22T01:13:21.020Z,13.70
2018-09-22T01:15:51.285Z,13.70
2018-09-22T01:18:21.069Z,13.70
2018-09-22T01:20:51.020Z,13.70
2018-09-22T01:23:20.830Z,13.70
2018-09-22T01:25:50.791Z,13.60
2018-09-22T01:28:20.658Z,13.70
2018-09-22T01:30:50.355Z,13.60
2018-09-22T01:33:20.368Z,13.60
2018-09-22T01:35:50.115Z,13.50
2018-09-22T01:38:19.801Z,13.50
2018-09-22T01:40:49.776Z,13.50
2018-09-22T01:43:19.758Z,13.40
2018-09-22T01:45:49.696Z,13.40
2018-09-22T01:48:19.851Z,13.40
2018-09-22T01:50:49.902Z,13.30
2018-09-22T01:53:19.893Z,13.30
2018-09-22T01:55:49.810Z,13.30
2018-09-22T01:58:19.579Z,13.30
2018-09-22T02:00:49.742Z,13.30
2018-09-22T02:03:19.651Z,13.20
2018-09-22T02:05:49.574Z,13.20
2018-09-22T02:08:19.446Z,13.20
2018-09-22T02:10:49.350Z,13.20
2018-09-22T02:13:19.175Z,13.20
2018-09-22T02:15:49.272Z,13.20
2018-09-22T02:18:18.996Z,13.20
2018-09-22T02:20:48.793Z,13.10
2018-09-22T02:23:18.757Z,13.10
2018-09-22T02:25:48.489Z,13.10
2018-09-22T02:28:18.569Z,13.10
2018-09-22T02:30:48.451Z,13.10
2018-09-22T02:33:18.558Z,13.10
2018-09-22T02:35:48.491Z,13.10
2018-09-22T02:38:18.274Z,13.10
2018-09-22T02:40:48.032Z,13.00
2018-09-22T02:43:18.050Z,13.00
2018-09-22T02:45:47.816Z,13.00
2018-09-22T02:48:17.529Z,12.90
2018-09-22T02:50:47.362Z,13.00
2018-09-22T02:53:17.211Z,12.90
2018-09-22T02:55:48.704Z,12.90
2018-09-22T02:58:18.728Z,12.90
2018-09-22T03:00:48.763Z,13.00
2018-09-22T03:03:18.665Z,13.00
2018-09-22T03:05:48.506Z,13.00
2018-09-22T03:08:18.431Z,13.00
2018-09-22T03:10:48.240Z,13.00
2018-09-22T03:13:18.445Z,13.00
2018-09-22T03:15:48.292Z,13.00
2018-09-22T03:18:18.239Z,13.10
2018-09-22T03:20:48.235Z,13.00
2018-09-22T03:23:18.636Z,13.00
2018-09-22T03:25:48.603Z,13.00
2018-09-22T03:28:18.464Z,13.00
2018-09-22T03:30:48.627Z,13.00
2018-09-22T03:33:18.372Z,13.10
2018-09-22T03:35:48.364Z,13.10
2018-09-22T03:38:18.225Z,13.20
2018-09-22T03:40:48.344Z,13.20
2018-09-22T03:43:18.404Z,13.30
2018-09-22T03:45:48.423Z,13.30
2018-09-22T03:48:18.420Z,13.30
2018-09-22T03:50:48.473Z,13.30
2018-09-22T03:53:18.777Z,13.30
2018-09-22T03:55:48.733Z,13.30
2018-09-22T03:58:19.020Z,13.30
2018-09-22T04:00:48.998Z,13.20
2018-09-22T04:03:18.947Z,13.20
2018-09-22T04:05:49.184Z,13.20
2018-09-22T04:08:19.256Z,13.20
2018-09-22T04:10:49.020Z,13.20
2018-09-22T04:13:19.020Z,13.20
2018-09-22T04:15:48.894Z,13.20
2018-09-22T04:18:18.738Z,13.20
2018-09-22T04:20:48.693Z,13.20
2018-09-22T04:23:18.779Z,13.20
2018-09-22T04:25:48.839Z,13.20
2018-09-22T04:28:18.751Z,13.20
2018-09-22T04:30:48.691Z,13.30
2018-09-22T04:33:18.686Z,13.30
2018-09-22T04:35:48.697Z,13.30
2018-09-22T04:38:18.682Z,13.30
2018-09-22T04:40:48.536Z,13.40
2018-09-22T04:43:18.647Z,13.40
2018-09-22T04:45:48.661Z,13.40
2018-09-22T04:48:18.842Z,13.50
2018-09-22T04:50:48.628Z,13.40
2018-09-22T04:53:18.571Z,13.50
2018-09-22T04:55:48.614Z,13.40
2018-09-22T04:58:18.462Z,13.40
2018-09-22T05:00:48.471Z,13.40
2018-09-22T05:03:18.416Z,13.40
2018-09-22T05:05:48.286Z,13.40
2018-09-22T05:08:18.107Z,13.30
2018-09-22T05:10:47.903Z,13.30
2018-09-22T05:13:17.740Z,13.30
2018-09-22T05:15:47.798Z,13.40
2018-09-22T05:18:17.665Z,13.30
2018-09-22T05:20:47.783Z,13.30
2018-09-22T05:23:17.776Z,13.30
2018-09-22T05:25:47.616Z,13.30
2018-09-22T05:28:17.773Z,13.30
2018-09-22T05:30:47.708Z,13.20
2018-09-22T05:33:17.620Z,13.30
2018-09-22T05:35:47.703Z,13.20
2018-09-22T05:38:17.628Z,13.20
2018-09-22T05:40:47.658Z,13.20
2018-09-22T05:43:17.555Z,13.20
2018-09-22T05:45:47.329Z,13.20
2018-09-22T05:48:17.423Z,13.20
2018-09-22T05:50:47.435Z,13.20
2018-09-22T05:53:17.349Z,13.20
2018-09-22T05:55:47.211Z,13.20
2018-09-22T05:58:17.169Z,13.20
2018-09-22T06:00:47.178Z,13.20
2018-09-22T06:03:17.064Z,13.10
2018-09-22T06:05:47.016Z,13.20
2018-09-22T06:08:17.003Z,13.20
2018-09-22T06:10:47.231Z,13.20
2018-09-22T06:13:17.067Z,13.20
2018-09-22T06:15:47.121Z,13.20
2018-09-22T06:18:17.196Z,13.30
2018-09-22T06:20:46.966Z,13.40
2018-09-22T06:23:16.944Z,13.50
2018-09-22T06:25:46.672Z,13.60
2018-09-22T06:28:16.469Z,13.60
2018-09-22T06:30:46.768Z,13.60
2018-09-22T06:33:16.837Z,13.60
2018-09-22T06:35:46.725Z,13.70
2018-09-22T06:38:16.883Z,13.60
2018-09-22T06:40:46.991Z,13.60
2018-09-22T06:43:16.944Z,13.60
2018-09-22T06:45:46.997Z,13.70
2018-09-22T06:48:16.880Z,13.70
2018-09-22T06:50:46.997Z,13.70
2018-09-22T06:53:17.244Z,13.80
2018-09-22T06:55:47.224Z,13.90
2018-09-22T06:58:17.086Z,13.90
2018-09-22T07:00:47.053Z,14.00
2018-09-22T07:03:17.409Z,14.00
2018-09-22T07:05:47.443Z,14.00
2018-09-22T07:08:18.566Z,14.10
2018-09-22T07:10:48.378Z,14.20
2018-09-22T07:13:18.349Z,14.20
2018-09-22T07:15:48.230Z,14.30
2018-09-22T07:18:18.192Z,14.30
2018-09-22T07:20:53.274Z,14.40
2018-09-22T07:23:23.595Z,14.40
2018-09-22T07:25:53.706Z,14.40
2018-09-22T07:28:23.672Z,14.40
2018-09-22T07:30:53.564Z,14.40
2018-09-22T07:33:23.740Z,14.40
2018-09-22T07:35:53.595Z,14.40
2018-09-22T07:38:23.496Z,14.40
2018-09-22T07:40:53.789Z,14.40
2018-09-22T07:43:23.615Z,14.40
2018-09-22T07:45:54.033Z,14.50
2018-09-22T07:48:23.992Z,14.60
2018-09-22T07:50:53.932Z,14.70
2018-09-22T07:53:23.827Z,14.80
2018-09-22T07:55:54.015Z,14.90
2018-09-22T07:58:23.889Z,15.00
2018-09-22T08:00:54.379Z,15.10
2018-09-22T08:03:24.594Z,15.20
2018-09-22T08:05:54.396Z,15.20
2018-09-22T08:08:24.404Z,15.20
2018-09-22T08:10:54.359Z,15.30
2018-09-22T08:13:24.326Z,15.20
2018-09-22T08:15:54.192Z,15.20
2018-09-22T08:18:24.297Z,15.30
2018-09-22T08:20:54.545Z,15.20
2018-09-22T08:23:24.693Z,15.30
2018-09-22T08:25:54.988Z,15.40
2018-09-22T08:28:25.564Z,15.40
2018-09-22T08:30:55.777Z,15.50
2018-09-22T08:33:25.802Z,15.50
2018-09-22T08:35:55.777Z,15.60
2018-09-22T08:38:25.699Z,15.80
2018-09-22T08:40:56.060Z,15.90
2018-09-22T08:43:26.696Z,16.00
2018-09-22T08:45:56.503Z,16.00
2018-09-22T08:48:26.439Z,16.10
2018-09-22T08:50:56.541Z,16.20
2018-09-22T08:53:26.490Z,16.30
2018-09-22T08:55:56.569Z,16.30
2018-09-22T08:58:26.510Z,16.30
2018-09-22T09:00:56.473Z,16.20
2018-09-22T09:03:26.411Z,16.20
2018-09-22T09:05:56.449Z,16.40
2018-09-22T09:08:26.456Z,16.40
2018-09-22T09:10:56.555Z,16.30
2018-09-22T09:13:26.473Z,16.20
2018-09-22T09:15:56.423Z,16.30
2018-09-22T09:18:26.449Z,16.40
2018-09-22T09:20:56.709Z,16.50
2018-09-22T09:23:26.805Z,16.60
2018-09-22T09:25:57.021Z,16.70
2018-09-22T09:28:26.981Z,16.80
2018-09-22T09:30:56.847Z,16.80
2018-09-22T09:33:26.869Z,16.90
2018-09-22T09:35:57.085Z,16.90
2018-09-22T09:38:27.041Z,17.00
2018-09-22T09:40:57.063Z,17.00
2018-09-22T09:43:27.186Z,17.00
2018-09-22T09:45:56.989Z,17.10
2018-09-22T09:48:27.060Z,17.10
2018-09-22T09:50:57.067Z,17.00
2018-09-22T09:53:27.423Z,17.00
2018-09-22T09:55:57.496Z,16.90
2018-09-22T09:58:27.819Z,16.80
2018-09-22T10:00:58.063Z,16.80
2018-09-22T10:03:28.187Z,16.80
2018-09-22T10:05:58.063Z,16.80
2018-09-22T10:08:27.921Z,16.90
2018-09-22T10:10:57.884Z,16.90
2018-09-22T10:13:28.027Z,16.90
2018-09-22T10:15:58.280Z,17.00
2018-09-22T10:18:28.487Z,17.10
2018-09-22T10:20:58.510Z,17.20
2018-09-22T10:23:31.268Z,17.30
2018-09-22T10:26:01.678Z,17.40
2018-09-22T10:28:31.756Z,17.50
2018-09-22T10:31:01.636Z,17.50
2018-09-22T10:33:32.023Z,17.50
2018-09-22T10:36:01.847Z,17.50
2018-09-22T10:38:32.028Z,17.60
2018-09-22T10:41:01.883Z,17.70
2018-09-22T10:43:31.851Z,17.90
2018-09-22T10:46:01.801Z,18.00
2018-09-22T10:48:31.853Z,18.10
2018-09-22T10:51:01.860Z,18.20
2018-09-22T10:53:31.824Z,18.30
2018-09-22T10:56:02.234Z,18.30
2018-09-22T10:58:32.307Z,18.40
2018-09-22T11:01:02.191Z,18.40
2018-09-22T11:03:32.132Z,18.50
2018-09-22T11:06:02.276Z,18.50
2018-09-22T11:08:32.248Z,18.50
2018-09-22T11:11:02.345Z,18.50
2018-09-22T11:13:32.581Z,18.40
2018-09-22T11:16:02.504Z,18.40
2018-09-22T11:18:32.555Z,18.40
2018-09-22T11:21:02.844Z,18.40
2018-09-22T11:23:32.863Z,18.50
2018-09-22T11:26:02.850Z,18.50
2018-09-22T11:28:32.866Z,18.50
2018-09-22T11:31:02.746Z,18.60
2018-09-22T11:33:32.866Z,18.70
2018-09-22T11:36:02.784Z,18.70
2018-09-22T11:38:32.936Z,18.80
2018-09-22T11:41:02.999Z,18.90
2018-09-22T11:43:32.861Z,19.00
2018-09-22T11:46:02.986Z,19.10
2018-09-22T11:48:33.265Z,19.10
2018-09-22T11:51:03.525Z,19.10
2018-09-22T11:53:33.641Z,19.20
2018-09-22T11:56:03.619Z,19.10
2018-09-22T11:58:33.436Z,19.20
2018-09-22T12:01:03.590Z,18.90
2018-09-22T12:03:33.713Z,18.80
2018-09-22T12:06:03.726Z,18.70
2018-09-22T12:08:33.645Z,18.60
2018-09-22T12:11:03.380Z,18.50
2018-09-22T12:13:33.535Z,18.30
2018-09-22T12:16:03.576Z,18.20
2018-09-22T12:18:33.633Z,18.20
2018-09-22T12:21:03.755Z,18.10
2018-09-22T12:23:33.848Z,18.00
2018-09-22T12:26:03.878Z,18.00
2018-09-22T12:28:33.900Z,18.00
2018-09-22T12:31:03.744Z,17.90
2018-09-22T12:33:34.968Z,17.90
2018-09-22T12:36:05.103Z,17.90
2018-09-22T12:38:35.576Z,17.80
2018-09-22T12:41:05.894Z,17.80
2018-09-22T12:43:35.812Z,17.80
2018-09-22T12:46:06.269Z,17.70
2018-09-22T12:48:36.546Z,17.70
2018-09-22T12:51:06.579Z,17.60
2018-09-22T12:53:36.839Z,17.40
2018-09-22T12:56:07.127Z,17.40
2018-09-22T12:58:37.033Z,17.40
2018-09-22T13:01:07.490Z,17.60
2018-09-22T13:03:37.676Z,17.70
2018-09-22T13:06:08.031Z,17.80
2018-09-22T13:08:38.104Z,17.80
2018-09-22T13:11:08.252Z,17.90
2018-09-22T13:13:38.571Z,17.80
2018-09-22T13:16:08.701Z,17.90
2018-09-22T13:18:38.569Z,17.90
2018-09-22T13:21:08.413Z,17.90
2018-09-22T13:23:38.315Z,18.00
2018-09-22T13:26:08.611Z,18.00
2018-09-22T13:28:38.874Z,17.90
2018-09-22T13:31:09.083Z,17.90
2018-09-22T13:33:38.978Z,17.90
2018-09-22T13:36:08.992Z,17.90
2018-09-22T13:38:39.141Z,17.90
2018-09-22T13:41:09.097Z,17.80
2018-09-22T13:43:39.287Z,17.60
2018-09-22T13:46:09.307Z,17.40
2018-09-22T13:48:39.320Z,17.20
2018-09-22T13:51:09.544Z,17.00
2018-09-22T13:53:39.692Z,16.80
2018-09-22T13:56:10.239Z,16.60
2018-09-22T13:58:40.585Z,16.70
2018-09-22T14:01:10.929Z,16.80
2018-09-22T14:03:41.045Z,16.80
2018-09-22T14:06:11.111Z,16.70
2018-09-22T14:08:41.351Z,16.60
2018-09-22T14:11:11.363Z,16.50
2018-09-22T14:13:41.654Z,16.40
2018-09-22T14:16:12.009Z,16.20
2018-09-22T14:18:42.185Z,16.10
2018-09-22T14:21:12.636Z,16.00
2018-09-22T14:23:43.137Z,16.10
2018-09-22T14:26:13.042Z,16.00
2018-09-22T14:28:42.995Z,16.10
2018-09-22T14:31:12.992Z,16.10
2018-09-22T14:33:43.143Z,16.10
2018-09-22T14:36:13.177Z,16.00
2018-09-22T14:38:43.155Z,16.00
2018-09-22T14:41:13.244Z,15.80
2018-09-22T14:43:43.399Z,15.80
2018-09-22T14:46:13.464Z,15.80
2018-09-22T14:48:43.368Z,15.70
2018-09-22T14:51:13.506Z,15.70
2018-09-22T14:53:43.676Z,15.70
2018-09-22T14:56:14.181Z,15.70
2018-09-22T14:58:44.120Z,15.60
2018-09-22T15:01:14.057Z,15.70
2018-09-22T15:03:44.136Z,15.70
2018-09-22T15:06:14.292Z,15.70
2018-09-22T15:08:44.403Z,15.50
2018-09-22T15:11:14.434Z,15.50
2018-09-22T15:13:44.555Z,15.50
2018-09-22T15:16:14.799Z,15.40
2018-09-22T15:18:44.901Z,15.40
2018-09-22T15:21:14.927Z,15.40
2018-09-22T15:23:45.092Z,15.40
2018-09-22T15:26:15.377Z,15.40
2018-09-22T15:28:45.277Z,15.40
2018-09-22T15:31:15.170Z,15.40
2018-09-22T15:33:45.053Z,15.40
2018-09-22T15:36:14.874Z,15.30
2018-09-22T15:38:45.037Z,15.30
2018-09-22T15:41:14.949Z,15.30
2018-09-22T15:43:45.177Z,15.30
2018-09-22T15:46:15.227Z,15.30
2018-09-22T15:48:45.200Z,15.30
2018-09-22T15:51:15.396Z,15.20
2018-09-22T15:53:45.619Z,15.20
2018-09-22T15:56:15.723Z,15.10
2018-09-22T15:58:45.689Z,15.10
2018-09-22T16:01:15.726Z,14.90
2018-09-22T16:03:45.557Z,14.90
2018-09-22T16:06:15.736Z,14.80
2018-09-22T16:08:46.606Z,14.70
2018-09-22T16:11:17.920Z,14.70
2018-09-22T16:13:49.013Z,14.60
2018-09-22T16:16:18.976Z,14.60
2018-09-22T16:18:48.989Z,14.50
2018-09-22T16:21:20.178Z,14.50
2018-09-22T16:23:50.326Z,14.50
2018-09-22T16:26:20.522Z,14.50
2018-09-22T16:28:50.396Z,14.50
2018-09-22T16:31:20.288Z,14.60
2018-09-22T16:33:50.339Z,14.50
2018-09-22T16:36:20.602Z,14.40
2018-09-22T16:38:50.644Z,14.30
2018-09-22T16:41:20.570Z,14.10
2018-09-22T16:43:50.603Z,13.90
2018-09-22T16:46:20.640Z,13.60
2018-09-22T16:48:50.895Z,13.50
2018-09-22T16:51:20.718Z,13.40
2018-09-22T16:53:50.892Z,13.30
2018-09-22T16:56:21.402Z,13.20
2018-09-22T16:58:51.425Z,13.20
2018-09-22T17:01:21.566Z,13.20
2018-09-22T17:03:51.664Z,13.10
2018-09-22T17:06:21.693Z,13.10
2018-09-22T17:08:51.620Z,13.10
2018-09-22T17:11:21.622Z,13.10
2018-09-22T17:13:51.933Z,13.10
2018-09-22T17:16:22.780Z,13.10
2018-09-22T17:18:52.751Z,13.10
2018-09-22T17:21:22.916Z,13.10
2018-09-22T17:23:52.865Z,13.10
2018-09-22T17:26:23.102Z,13.10
2018-09-22T17:28:52.901Z,13.10
2018-09-22T17:31:22.917Z,13.10
2018-09-22T17:33:52.697Z,13.10
2018-09-22T17:36:22.885Z,13.10
2018-09-22T17:38:52.828Z,13.10
2018-09-22T17:41:23.596Z,13.00
2018-09-22T17:43:54.273Z,13.00
2018-09-22T17:46:24.319Z,13.10
2018-09-22T17:48:54.221Z,13.10
2018-09-22T17:53:47.968Z,13.10
2018-09-22T17:56:17.805Z,13.20
2018-09-22T17:58:47.835Z,13.20
2018-09-22T18:01:17.867Z,13.20
2018-09-22T18:03:47.908Z,13.20
2018-09-22T18:06:17.830Z,13.20
2018-09-22T18:08:47.919Z,13.20
2018-09-22T18:11:17.921Z,13.20
2018-09-22T18:13:47.733Z,13.20
2018-09-22T18:16:17.717Z,13.30
2018-09-22T18:18:47.507Z,13.30
2018-09-22T18:21:17.600Z,13.30
2018-09-22T18:23:47.516Z,13.30
2018-09-22T18:26:17.348Z,13.30
2018-09-22T18:28:47.247Z,13.30
2018-09-22T18:31:17.147Z,13.30
2018-09-22T18:33:47.058Z,13.30
2018-09-22T18:36:16.936Z,13.30
2018-09-22T18:38:47.067Z,13.30
2018-09-22T18:41:17.268Z,13.30
2018-09-22T18:43:47.579Z,13.30
2018-09-22T18:46:17.623Z,13.30
2018-09-22T18:48:47.784Z,13.30
2018-09-22T18:51:18.151Z,13.30
2018-09-22T18:53:47.882Z,13.30
2018-09-22T18:56:17.814Z,13.30
2018-09-22T18:58:47.813Z,13.30
2018-09-22T19:01:18.012Z,13.30
2018-09-22T19:03:48.016Z,13.30
2018-09-22T19:06:17.948Z,13.30
2018-09-22T19:08:47.925Z,13.30
2018-09-22T19:11:18.170Z,13.30
2018-09-22T19:13:58.015Z,13.30
2018-09-22T19:16:31.701Z,13.30
2018-09-22T19:19:06.859Z,13.30
2018-09-22T19:22:07.169Z,13.30
2018-09-22T19:24:42.748Z,13.30
2018-09-22T19:27:23.417Z,13.30
2018-09-22T19:30:03.729Z,13.30
2018-09-22T19:32:43.701Z,13.20
2018-09-22T19:35:19.236Z,13.20
2018-09-22T19:37:53.608Z,13.30
2018-09-22T19:40:33.409Z,13.20
2018-09-22T19:43:22.568Z,13.20
2018-09-22T19:45:55.643Z,13.20
2018-09-22T19:48:47.761Z,13.20
2018-09-22T19:51:19.701Z,13.20
2018-09-22T19:53:50.569Z,13.10
2018-09-22T19:56:20.812Z,13.10
2018-09-22T19:58:51.045Z,13.10
2018-09-22T20:01:21.523Z,13.20
2018-09-22T20:03:51.642Z,13.20
2018-09-22T20:06:22.035Z,13.20
2018-09-22T20:08:52.639Z,13.10
2018-09-22T20:11:22.983Z,13.20
2018-09-22T20:13:53.546Z,13.20
2018-09-22T20:16:23.892Z,13.20
2018-09-22T20:18:54.512Z,13.10
2018-09-22T20:21:24.770Z,13.10
2018-09-22T20:23:55.280Z,13.10
2018-09-22T20:26:25.566Z,13.10
2018-09-22T20:28:55.539Z,13.10
2018-09-22T20:31:25.521Z,13.00
2018-09-22T20:33:55.594Z,13.10
2018-09-22T20:36:25.720Z,13.10
2018-09-22T20:38:55.638Z,13.10
2018-09-22T20:41:25.528Z,13.10
2018-09-22T20:43:55.565Z,13.10
2018-09-22T20:46:25.404Z,13.00
2018-09-22T20:48:55.308Z,13.00
2018-09-22T20:51:25.325Z,13.00
2018-09-22T20:53:55.238Z,13.00
2018-09-22T20:56:25.195Z,13.00
2018-09-22T20:58:55.154Z,13.00
2018-09-22T21:01:24.970Z,13.00
2018-09-22T21:03:55.035Z,13.00
2018-09-22T21:06:24.919Z,13.00
2018-09-22T21:08:55.021Z,13.10
2018-09-22T21:11:24.961Z,13.00
2018-09-22T21:13:55.083Z,13.00
2018-09-22T21:16:25.072Z,12.90
2018-09-22T21:18:54.991Z,12.90
2018-09-22T21:21:24.879Z,12.90
2018-09-22T21:23:55.049Z,12.90
2018-09-22T21:26:25.067Z,12.90
2018-09-22T21:28:55.038Z,12.90
2018-09-22T21:31:24.852Z,12.80
2018-09-22T21:33:54.760Z,12.90
2018-09-22T21:36:24.922Z,12.90
2018-09-22T21:38:54.828Z,12.90
2018-09-22T21:41:24.665Z,12.90
2018-09-22T21:43:55.013Z,12.80
2018-09-22T21:46:25.436Z,12.90
2018-09-22T21:48:55.963Z,12.90
2018-09-22T21:51:27.532Z,12.90
2018-09-22T21:53:58.060Z,12.90
2018-09-22T21:56:28.213Z,12.90
2018-09-22T21:58:58.554Z,12.90
2018-09-22T22:01:38.248Z,12.90
2018-09-22T22:04:09.240Z,12.90
2018-09-22T22:06:39.369Z,12.90
2018-09-22T22:09:12.271Z,12.90
2018-09-22T22:11:43.063Z,12.90
2018-09-22T22:14:13.885Z,12.80
2018-09-22T22:16:44.820Z,12.80
2018-09-22T22:19:15.388Z,12.90
2018-09-22T22:21:45.991Z,12.80
2018-09-22T22:24:16.312Z,12.80
2018-09-22T22:26:46.926Z,12.80
2018-09-22T22:29:17.277Z,12.80
2018-09-22T22:31:47.796Z,12.80
2018-09-22T22:34:18.236Z,12.80
2018-09-22T22:36:48.523Z,12.80
2018-09-22T22:39:18.278Z,12.80
2018-09-22T22:41:48.454Z,12.80
2018-09-22T22:44:18.413Z,12.80
2018-09-22T22:46:48.777Z,12.80
2018-09-22T22:49:18.928Z,12.80
2018-09-22T22:51:49.223Z,12.80
2018-09-22T22:54:19.127Z,12.80
2018-09-22T22:56:49.220Z,12.80
2018-09-22T22:59:19.382Z,12.80
2018-09-22T23:01:49.983Z,12.80
2018-09-22T23:04:20.866Z,12.80
2018-09-22T23:06:50.814Z,12.80
2018-09-22T23:09:20.761Z,12.80
2018-09-22T23:11:50.980Z,12.80
2018-09-22T23:14:20.847Z,12.80
2018-09-22T23:16:50.924Z,12.80
2018-09-22T23:19:20.807Z,12.80
2018-09-22T23:21:57.597Z,12.80
2018-09-22T23:24:27.387Z,12.80
2018-09-22T23:26:57.222Z,12.70
2018-09-22T23:29:27.626Z,12.80
2018-09-22T23:31:57.591Z,12.70
2018-09-22T23:34:27.608Z,12.70
2018-09-22T23:36:57.639Z,12.70
2018-09-22T23:39:27.804Z,12.70
2018-09-22T23:41:57.605Z,12.70
2018-09-22T23:44:27.572Z,12.70
2018-09-22T23:46:57.504Z,12.70
2018-09-22T23:49:27.541Z,12.70
2018-09-22T23:51:57.519Z,12.70
2018-09-22T23:54:27.402Z,12.70
2018-09-22T23:56:57.335Z,12.70
2018-09-22T23:59:27.454Z,12.70
